createdAt,value
2019-05-03T00:01:21.755Z,9.10
2019-05-03T00:03:52.178Z,9.00
2019-05-03T00:06:23.798Z,9.00
2019-05-03T00:08:54.173Z,9.00
2019-05-03T00:11:24.474Z,9.00
2019-05-03T00:13:54.799Z,9.00
2019-05-03T00:16:30.186Z,9.00
2019-05-03T00:19:01.578Z,8.90
2019-05-03T00:21:32.748Z,9.00
2019-05-03T00:24:03.158Z,9.00
2019-05-03T00:26:33.473Z,9.00
2019-05-03T00:29:03.834Z,8.90
2019-05-03T00:31:34.470Z,8.90
2019-05-03T00:34:08.990Z,8.90
2019-05-03T00:36:44.310Z,8.90
2019-05-03T00:39:42.893Z,8.90
2019-05-03T00:42:13.290Z,8.90
2019-05-03T00:44:43.596Z,8.90
2019-05-03T00:47:13.888Z,8.90
2019-05-03T00:49:44.190Z,8.90
2019-05-03T00:52:14.491Z,9.00
2019-05-03T00:54:44.786Z,9.00
2019-05-03T00:57:15.089Z,9.10
2019-05-03T00:59:45.391Z,9.00
2019-05-03T01:02:15.960Z,9.00
2019-05-03T01:04:46.285Z,9.10
2019-05-03T01:07:16.706Z,9.10
2019-05-03T01:09:47.027Z,9.10
2019-05-03T01:12:17.362Z,9.00
2019-05-03T01:14:51.483Z,9.10
2019-05-03T01:17:22.448Z,9.10
2019-05-03T01:19:52.996Z,9.10
2019-05-03T01:22:23.413Z,9.00
2019-05-03T01:24:53.805Z,9.00
2019-05-03T01:27:24.088Z,9.00
2019-05-03T01:29:54.394Z,8.80
2019-05-03T01:32:24.696Z,8.70
2019-05-03T01:34:54.989Z,8.60
2019-05-03T01:37:25.422Z,8.60
2019-05-03T01:39:55.805Z,8.50
2019-05-03T01:42:26.190Z,8.40
2019-05-03T01:44:56.481Z,8.40
2019-05-03T01:47:52.635Z,8.40
2019-05-03T01:50:38.918Z,8.30
2019-05-03T01:53:12.453Z,8.30
2019-05-03T01:55:52.542Z,8.20
2019-05-03T01:58:23.433Z,8.20
2019-05-03T02:01:07.357Z,8.20
2019-05-03T02:03:44.212Z,8.20
2019-05-03T02:06:14.604Z,8.20
2019-05-03T02:08:44.962Z,8.20
2019-05-03T02:11:15.294Z,8.20
2019-05-03T02:13:45.569Z,8.20
2019-05-03T02:16:15.974Z,8.20
2019-05-03T02:18:46.309Z,8.20
2019-05-03T02:21:16.637Z,8.30
2019-05-03T02:23:46.949Z,8.30
2019-05-03T02:26:18.566Z,8.20
2019-05-03T02:28:48.965Z,8.20
2019-05-03T02:31:19.304Z,8.10
2019-05-03T02:33:49.606Z,8.10
2019-05-03T02:36:23.019Z,8.10
2019-05-03T02:38:53.439Z,8.10
2019-05-03T02:41:24.139Z,8.00
2019-05-03T02:43:56.068Z,7.90
2019-05-03T02:46:45.393Z,7.80
2019-05-03T02:49:28.901Z,7.80
2019-05-03T02:51:59.277Z,7.80
2019-05-03T02:54:29.605Z,7.80
2019-05-03T02:56:59.910Z,7.80
2019-05-03T02:59:30.463Z,7.90
2019-05-03T03:02:01.206Z,7.80
2019-05-03T03:04:31.793Z,7.90
2019-05-03T03:07:02.710Z,7.90
2019-05-03T03:09:35.968Z,7.90
2019-05-03T03:12:07.161Z,7.90
2019-05-03T03:14:39.463Z,7.90
2019-05-03T03:17:11.345Z,7.90
2019-05-03T03:19:45.962Z,7.90
2019-05-03T03:22:17.717Z,7.90
2019-05-03T03:24:51.690Z,7.90
2019-05-03T03:27:25.733Z,7.80
2019-05-03T03:30:28.962Z,7.90
2019-05-03T03:32:59.555Z,7.90
2019-05-03T03:35:31.096Z,7.90
2019-05-03T03:38:01.520Z,7.90
2019-05-03T03:40:31.973Z,7.90
2019-05-03T03:43:05.306Z,7.80
2019-05-03T03:45:36.962Z,7.80
2019-05-03T03:48:10.396Z,7.80
2019-05-03T03:50:41.984Z,7.90
2019-05-03T03:53:15.272Z,7.90
2019-05-03T03:55:47.781Z,7.90
2019-05-03T03:58:23.034Z,7.90
2019-05-03T04:00:50.366Z,7.90
2019-05-03T04:03:21.988Z,7.90
2019-05-03T04:05:52.402Z,7.90
2019-05-03T04:08:25.052Z,7.90
2019-05-03T04:10:55.848Z,7.90
2019-05-03T04:13:27.287Z,7.90
2019-05-03T04:16:25.730Z,7.90
2019-05-03T04:18:59.381Z,7.90
2019-05-03T04:21:29.861Z,7.80
2019-05-03T04:24:00.523Z,7.80
2019-05-03T04:26:30.842Z,7.80
2019-05-03T04:29:05.072Z,7.70
2019-05-03T04:31:36.818Z,7.80
2019-05-03T04:34:06.451Z,7.70
2019-05-03T04:36:37.854Z,7.60
2019-05-03T04:39:08.385Z,7.60
2019-05-03T04:41:38.961Z,7.50
2019-05-03T04:44:09.481Z,7.50
2019-05-03T04:46:39.873Z,7.50
2019-05-03T04:49:10.162Z,7.50
2019-05-03T04:51:40.806Z,7.50
2019-05-03T04:54:29.697Z,7.60
2019-05-03T04:57:00.047Z,7.60
2019-05-03T04:59:30.365Z,7.60
2019-05-03T05:02:00.802Z,7.60
2019-05-03T05:04:31.089Z,7.50
2019-05-03T05:07:01.386Z,7.50
2019-05-03T05:09:31.689Z,7.50
2019-05-03T05:12:02.113Z,7.30
2019-05-03T05:14:35.034Z,7.30
2019-05-03T05:17:06.095Z,7.20
2019-05-03T05:20:08.418Z,7.10
2019-05-03T05:22:38.909Z,7.10
2019-05-03T05:25:14.785Z,7.10
2019-05-03T05:28:04.676Z,7.10
2019-05-03T05:30:35.426Z,7.10
2019-05-03T05:33:09.244Z,7.00
2019-05-03T05:35:40.939Z,7.00
2019-05-03T05:38:11.273Z,7.00
2019-05-03T05:40:42.582Z,7.00
2019-05-03T05:43:15.112Z,7.00
2019-05-03T05:45:45.026Z,7.00
2019-05-03T05:48:19.734Z,7.00
2019-05-03T05:50:50.072Z,7.10
2019-05-03T05:53:20.985Z,7.10
2019-05-03T05:56:15.664Z,7.10
2019-05-03T05:58:50.547Z,7.10
2019-05-03T06:01:25.101Z,7.10
2019-05-03T06:03:55.665Z,7.20
2019-05-03T06:07:04.609Z,7.20
2019-05-03T06:09:41.381Z,7.20
2019-05-03T06:12:20.094Z,7.20
2019-05-03T06:14:55.020Z,7.20
2019-05-03T06:17:40.405Z,7.20
2019-05-03T06:20:26.427Z,7.20
2019-05-03T06:23:01.478Z,7.10
2019-05-03T06:25:38.649Z,7.10
2019-05-03T06:28:20.968Z,7.10
2019-05-03T06:31:21.144Z,7.10
2019-05-03T06:33:52.480Z,7.20
2019-05-03T06:36:24.250Z,7.10
2019-05-03T06:38:54.817Z,7.10
2019-05-03T06:41:25.226Z,7.10
2019-05-03T06:43:55.586Z,7.30
2019-05-03T06:46:45.973Z,7.40
2019-05-03T06:49:16.685Z,7.50
2019-05-03T06:51:49.716Z,7.50
2019-05-03T06:54:20.779Z,7.50
2019-05-03T06:56:50.857Z,7.60
2019-05-03T06:59:30.434Z,7.60
2019-05-03T07:02:32.162Z,7.50
2019-05-03T07:05:04.989Z,7.40
2019-05-03T07:07:50.102Z,7.40
2019-05-03T07:10:44.370Z,7.40
2019-05-03T07:13:15.157Z,7.30
2019-05-03T07:15:45.610Z,7.40
2019-05-03T07:18:15.900Z,7.40
2019-05-03T07:20:56.924Z,7.40
2019-05-03T07:23:26.506Z,7.50
2019-05-03T07:25:56.841Z,7.50
2019-05-03T07:28:27.185Z,7.50
2019-05-03T07:30:57.588Z,7.50
2019-05-03T07:33:30.186Z,7.60
2019-05-03T07:36:00.571Z,7.50
2019-05-03T07:38:30.874Z,7.50
2019-05-03T07:41:01.384Z,7.60
2019-05-03T07:43:31.669Z,7.70
2019-05-03T07:46:01.985Z,7.70
2019-05-03T07:48:32.272Z,7.70
2019-05-03T07:51:02.798Z,7.70
2019-05-03T07:53:34.877Z,7.80
2019-05-03T07:56:15.722Z,7.80
2019-05-03T07:58:59.382Z,7.80
2019-05-03T08:01:28.816Z,7.80
2019-05-03T08:03:59.153Z,7.80
2019-05-03T08:06:29.465Z,7.90
2019-05-03T08:08:59.794Z,7.90
2019-05-03T08:11:35.164Z,7.90
2019-05-03T08:14:06.744Z,8.00
2019-05-03T08:16:37.042Z,8.00
2019-05-03T08:19:07.720Z,8.10
2019-05-03T08:21:39.045Z,8.30
2019-05-03T08:24:09.549Z,8.50
2019-05-03T08:26:41.054Z,8.60
2019-05-03T08:29:18.639Z,8.50
2019-05-03T08:32:05.067Z,8.40
2019-05-03T08:34:45.218Z,8.40
2019-05-03T08:37:17.833Z,8.40
2019-05-03T08:39:48.657Z,8.40
2019-05-03T08:42:25.500Z,8.50
2019-05-03T08:44:55.483Z,8.50
2019-05-03T08:47:26.010Z,8.60
2019-05-03T08:49:56.333Z,8.80
2019-05-03T08:52:26.637Z,8.80
2019-05-03T08:54:56.976Z,8.90
2019-05-03T08:57:27.312Z,9.00
2019-05-03T08:59:57.691Z,9.00
2019-05-03T09:02:28.093Z,9.00
2019-05-03T09:04:58.389Z,9.00
2019-05-03T09:07:28.694Z,9.10
2019-05-03T09:10:12.242Z,9.00
2019-05-03T09:12:58.959Z,9.00
2019-05-03T09:15:29.334Z,8.80
2019-05-03T09:17:59.741Z,8.70
2019-05-03T09:20:32.354Z,8.70
2019-05-03T09:23:02.696Z,8.80
2019-05-03T09:25:34.865Z,8.90
2019-05-03T09:28:07.546Z,8.90
2019-05-03T09:30:40.153Z,9.10
2019-05-03T09:33:15.156Z,9.30
2019-05-03T09:35:45.862Z,9.40
2019-05-03T09:38:16.258Z,9.30
2019-05-03T09:40:48.512Z,9.20
2019-05-03T09:43:18.861Z,9.10
2019-05-03T09:45:49.157Z,9.00
2019-05-03T09:48:19.594Z,9.10
2019-05-03T09:50:49.914Z,9.40
2019-05-03T09:53:22.298Z,9.40
2019-05-03T09:55:55.385Z,9.40
2019-05-03T09:58:26.518Z,9.30
2019-05-03T10:00:56.968Z,9.20
2019-05-03T10:03:27.330Z,9.10
2019-05-03T10:05:57.726Z,8.90
2019-05-03T10:08:27.986Z,8.90
2019-05-03T10:11:10.844Z,8.90
2019-05-03T10:13:41.989Z,9.00
2019-05-03T10:16:14.923Z,9.10
2019-05-03T10:18:45.981Z,9.30
2019-05-03T10:21:17.988Z,9.40
2019-05-03T10:23:48.282Z,9.50
2019-05-03T10:26:18.691Z,9.50
2019-05-03T10:28:50.917Z,9.30
2019-05-03T10:31:25.218Z,9.30
2019-05-03T10:34:05.564Z,9.20
2019-05-03T10:36:35.657Z,9.30
2019-05-03T10:39:07.551Z,9.20
2019-05-03T10:41:38.754Z,9.20
2019-05-03T10:44:09.220Z,9.30
2019-05-03T10:46:39.928Z,9.30
2019-05-03T10:49:10.269Z,9.50
2019-05-03T10:51:45.373Z,9.60
2019-05-03T10:54:16.134Z,9.80
2019-05-03T10:56:52.217Z,9.80
2019-05-03T10:59:26.257Z,9.70
2019-05-03T11:02:35.102Z,9.70
2019-05-03T11:05:06.642Z,9.60
2019-05-03T11:07:36.996Z,9.70
2019-05-03T11:10:07.944Z,9.70
2019-05-03T11:12:39.541Z,9.70
2019-05-03T11:15:10.182Z,9.70
2019-05-03T11:17:42.577Z,9.70
2019-05-03T11:20:22.202Z,9.90
2019-05-03T11:22:48.022Z,9.80
2019-05-03T11:25:18.469Z,9.80
2019-05-03T11:27:54.906Z,9.70
2019-05-03T11:30:25.140Z,9.70
2019-05-03T11:33:08.811Z,9.80
2019-05-03T11:35:55.226Z,9.70
2019-05-03T11:38:34.798Z,9.60
2019-05-03T11:41:04.890Z,9.60
2019-05-03T11:43:35.298Z,9.60
2019-05-03T11:46:05.609Z,9.60
2019-05-03T11:48:35.918Z,9.70
2019-05-03T11:51:06.275Z,9.90
2019-05-03T11:53:36.594Z,10.00
2019-05-03T11:56:06.906Z,10.30
2019-05-03T11:58:37.244Z,10.40
2019-05-03T12:01:19.939Z,10.40
2019-05-03T12:03:50.294Z,10.40
2019-05-03T12:06:20.597Z,10.40
2019-05-03T12:08:50.990Z,10.20
2019-05-03T12:11:21.377Z,10.00
2019-05-03T12:14:10.445Z,10.00
2019-05-03T12:17:14.447Z,10.00
2019-05-03T12:19:21.550Z,10.20
2019-05-03T12:21:51.840Z,10.20
2019-05-03T12:24:23.170Z,10.20
2019-05-03T12:26:55.840Z,10.20
2019-05-03T12:29:26.170Z,10.20
2019-05-03T12:31:56.469Z,10.00
2019-05-03T12:34:26.791Z,9.90
2019-05-03T12:36:57.102Z,10.00
2019-05-03T12:39:30.570Z,10.10
2019-05-03T12:41:59.586Z,10.20
2019-05-03T12:44:29.949Z,10.10
2019-05-03T12:47:02.563Z,10.20
2019-05-03T12:49:32.286Z,10.30
2019-05-03T12:52:02.699Z,10.30
2019-05-03T12:54:35.593Z,10.40
2019-05-03T12:57:06.264Z,10.90
2019-05-03T12:59:45.918Z,11.40
2019-05-03T13:02:30.341Z,11.20
2019-05-03T13:05:00.674Z,11.10
2019-05-03T13:07:36.635Z,11.10
2019-05-03T13:10:07.093Z,11.00
2019-05-03T13:12:49.622Z,10.80
2019-05-03T13:15:11.408Z,10.70
2019-05-03T13:17:41.705Z,10.60
2019-05-03T13:20:14.305Z,10.70
2019-05-03T13:22:45.759Z,10.60
2019-05-03T13:25:18.015Z,10.60
2019-05-03T13:27:48.407Z,10.70
2019-05-03T13:30:18.866Z,10.80
2019-05-03T13:32:49.157Z,10.90
2019-05-03T13:35:19.498Z,11.10
2019-05-03T13:37:49.803Z,11.40
2019-05-03T13:40:22.110Z,11.30
2019-05-03T13:42:57.239Z,11.30
2019-05-03T13:45:24.761Z,11.10
2019-05-03T13:47:55.402Z,11.00
2019-05-03T13:50:25.785Z,10.90
2019-05-03T13:52:56.107Z,11.00
2019-05-03T13:55:26.438Z,11.20
2019-05-03T13:57:57.882Z,11.40
2019-05-03T14:00:28.321Z,11.70
2019-05-03T14:02:58.624Z,12.00
2019-05-03T14:05:28.956Z,12.20
2019-05-03T14:07:59.253Z,12.10
2019-05-03T14:10:29.558Z,12.10
2019-05-03T14:12:59.954Z,12.40
2019-05-03T14:15:30.329Z,12.40
2019-05-03T14:18:00.795Z,12.40
2019-05-03T14:21:05.574Z,12.30
2019-05-03T14:23:55.274Z,12.10
2019-05-03T14:26:26.534Z,12.00
2019-05-03T14:28:56.940Z,12.20
2019-05-03T14:31:27.412Z,12.20
2019-05-03T14:33:57.742Z,12.20
2019-05-03T14:36:28.048Z,12.00
2019-05-03T14:38:58.506Z,11.80
2019-05-03T14:41:28.847Z,12.00
2019-05-03T14:43:59.222Z,12.00
2019-05-03T14:46:33.199Z,12.00
2019-05-03T14:49:01.445Z,11.90
2019-05-03T14:51:31.819Z,11.70
2019-05-03T14:54:02.493Z,11.60
2019-05-03T14:56:39.347Z,11.60
2019-05-03T14:59:28.764Z,11.60
2019-05-03T15:02:05.399Z,11.60
2019-05-03T15:04:35.823Z,11.40
2019-05-03T15:07:06.259Z,11.70
2019-05-03T15:09:36.595Z,11.70
2019-05-03T15:12:07.219Z,11.80
2019-05-03T15:14:37.607Z,11.90
2019-05-03T15:17:07.879Z,11.80
2019-05-03T15:19:38.575Z,11.70
2019-05-03T15:22:09.133Z,11.60
2019-05-03T15:24:39.628Z,11.50
2019-05-03T15:27:09.927Z,11.60
2019-05-03T15:29:40.912Z,11.90
2019-05-03T15:32:11.389Z,12.30
2019-05-03T15:34:41.726Z,12.60
2019-05-03T15:37:12.035Z,12.80
2019-05-03T15:39:42.441Z,12.90
2019-05-03T15:42:14.574Z,12.60
2019-05-03T15:44:57.994Z,12.30
2019-05-03T15:47:38.539Z,12.00
2019-05-03T15:50:12.062Z,11.80
2019-05-03T15:52:44.377Z,11.70
2019-05-03T15:55:15.249Z,11.60
2019-05-03T15:57:46.082Z,11.50
2019-05-03T16:00:17.318Z,11.50
2019-05-03T16:02:47.621Z,11.20
2019-05-03T16:05:17.971Z,11.10
2019-05-03T16:07:48.294Z,11.00
2019-05-03T16:10:18.585Z,11.10
2019-05-03T16:12:48.921Z,11.10
2019-05-03T16:15:19.233Z,11.20
2019-05-03T16:17:49.557Z,11.20
2019-05-03T16:20:20.142Z,11.30
2019-05-03T16:22:50.513Z,11.20
2019-05-03T16:25:21.477Z,11.60
2019-05-03T16:28:06.697Z,11.90
2019-05-03T16:30:56.172Z,11.90
2019-05-03T16:33:28.172Z,11.80
2019-05-03T16:35:58.468Z,11.60
2019-05-03T16:38:29.166Z,11.40
2019-05-03T16:40:59.593Z,11.20
2019-05-03T16:43:29.978Z,11.20
2019-05-03T16:46:02.053Z,11.00
2019-05-03T16:48:32.503Z,11.00
2019-05-03T16:51:03.170Z,11.10
2019-05-03T16:53:35.825Z,11.00
2019-05-03T16:56:06.170Z,11.20
2019-05-03T16:58:36.672Z,11.30
2019-05-03T17:01:07.037Z,11.20
2019-05-03T17:03:42.527Z,11.10
2019-05-03T17:06:45.170Z,11.10
2019-05-03T17:09:50.706Z,11.00
2019-05-03T17:12:25.688Z,11.00
2019-05-03T17:14:56.978Z,10.80
2019-05-03T17:17:27.657Z,10.60
2019-05-03T17:19:58.041Z,10.60
2019-05-03T17:22:28.430Z,10.50
2019-05-03T17:24:59.012Z,10.50
2019-05-03T17:27:29.517Z,10.60
2019-05-03T17:30:00.344Z,10.60
2019-05-03T17:32:30.672Z,10.60
2019-05-03T17:35:00.997Z,10.70
2019-05-03T17:37:31.781Z,10.70
2019-05-03T17:40:19.821Z,10.80
2019-05-03T17:43:02.275Z,10.80
2019-05-03T17:45:38.066Z,10.80
2019-05-03T17:48:08.502Z,10.80
2019-05-03T17:50:39.141Z,10.90
2019-05-03T17:53:28.220Z,10.90
2019-05-03T17:56:16.530Z,10.80
2019-05-03T17:58:50.847Z,10.60
2019-05-03T18:01:46.481Z,10.60
2019-05-03T18:04:27.642Z,10.50
2019-05-03T18:07:10.734Z,10.50
2019-05-03T18:09:41.463Z,10.30
2019-05-03T18:12:11.783Z,10.30
2019-05-03T18:14:42.369Z,10.10
2019-05-03T18:17:14.640Z,10.10
2019-05-03T18:19:44.915Z,10.00
2019-05-03T18:22:17.104Z,9.90
2019-05-03T18:24:47.607Z,9.90
2019-05-03T18:27:17.910Z,9.90
2019-05-03T18:29:48.493Z,9.80
2019-05-03T18:32:18.894Z,9.80
2019-05-03T18:34:49.204Z,9.80
2019-05-03T18:37:19.641Z,9.80
2019-05-03T18:39:50.016Z,9.70
2019-05-03T18:42:30.647Z,9.70
2019-05-03T18:45:04.585Z,9.60
2019-05-03T18:47:35.014Z,9.60
2019-05-03T18:50:05.641Z,9.60
2019-05-03T18:52:35.941Z,9.60
2019-05-03T18:55:06.912Z,9.60
2019-05-03T18:57:37.311Z,9.60
2019-05-03T19:00:08.316Z,9.50
2019-05-03T19:02:39.876Z,9.60
2019-05-03T19:05:10.319Z,9.50
2019-05-03T19:08:04.472Z,9.50
2019-05-03T19:10:41.353Z,9.50
2019-05-03T19:13:37.097Z,9.40
2019-05-03T19:16:20.664Z,9.30
2019-05-03T19:18:51.170Z,9.40
2019-05-03T19:21:21.468Z,9.40
2019-05-03T19:23:51.907Z,9.40
2019-05-03T19:26:22.266Z,9.30
2019-05-03T19:28:52.679Z,9.30
2019-05-03T19:31:25.145Z,9.30
2019-05-03T19:33:56.024Z,9.30
2019-05-03T19:36:26.340Z,9.20
2019-05-03T19:38:56.768Z,9.20
2019-05-03T19:41:27.160Z,9.10
2019-05-03T19:43:57.502Z,9.00
2019-05-03T19:46:28.531Z,9.00
2019-05-03T19:48:58.908Z,9.00
2019-05-03T19:51:29.225Z,9.00
2019-05-03T19:53:59.551Z,9.00
2019-05-03T19:56:29.879Z,8.90
2019-05-03T19:59:04.658Z,8.90
2019-05-03T20:01:51.156Z,8.80
2019-05-03T20:04:40.734Z,8.70
2019-05-03T20:07:21.661Z,8.60
2019-05-03T20:09:51.980Z,8.70
2019-05-03T20:12:22.346Z,8.60
2019-05-03T20:14:54.494Z,8.60
2019-05-03T20:17:24.637Z,8.60
2019-05-03T20:19:54.967Z,8.60
2019-05-03T20:22:25.291Z,8.50
2019-05-03T20:24:55.660Z,8.60
2019-05-03T20:27:25.963Z,8.60
2019-05-03T20:29:58.496Z,8.50
2019-05-03T20:32:28.846Z,8.50
2019-05-03T20:35:11.041Z,8.50
2019-05-03T20:37:31.178Z,8.50
2019-05-03T20:40:01.500Z,8.50
2019-05-03T20:42:50.112Z,8.50
2019-05-03T20:45:25.065Z,8.50
2019-05-03T20:47:57.409Z,8.50
2019-05-03T20:50:27.969Z,8.40
2019-05-03T20:52:58.281Z,8.40
2019-05-03T20:55:28.648Z,8.40
2019-05-03T20:57:58.997Z,8.40
2019-05-03T21:00:29.459Z,8.20
2019-05-03T21:03:00.866Z,8.20
2019-05-03T21:05:34.639Z,8.20
2019-05-03T21:08:05.401Z,8.10
2019-05-03T21:10:35.690Z,8.10
2019-05-03T21:13:08.609Z,8.10
2019-05-03T21:15:52.195Z,8.10
2019-05-03T21:18:42.033Z,8.10
2019-05-03T21:21:20.664Z,8.00
2019-05-03T21:23:55.389Z,8.00
2019-05-03T21:26:25.756Z,8.00
2019-05-03T21:28:56.057Z,7.90
2019-05-03T21:31:26.381Z,7.90
2019-05-03T21:33:56.700Z,7.90
2019-05-03T21:36:27.053Z,7.90
2019-05-03T21:38:57.446Z,7.90
2019-05-03T21:41:27.892Z,7.80
2019-05-03T21:43:58.192Z,7.90
2019-05-03T21:46:38.536Z,7.90
2019-05-03T21:49:30.917Z,7.80
2019-05-03T21:52:01.303Z,7.80
2019-05-03T21:54:31.779Z,7.80
2019-05-03T21:57:02.155Z,7.70
2019-05-03T21:59:32.465Z,7.70
2019-05-03T22:02:05.009Z,7.70
2019-05-03T22:04:35.139Z,7.70
2019-05-03T22:07:05.751Z,7.70
2019-05-03T22:09:36.509Z,7.70
2019-05-03T22:12:06.557Z,7.70
2019-05-03T22:14:47.811Z,7.60
2019-05-03T22:17:36.354Z,7.60
2019-05-03T22:20:17.738Z,7.60
2019-05-03T22:23:16.485Z,7.60
2019-05-03T22:25:46.762Z,7.60
2019-05-03T22:28:17.205Z,7.50
2019-05-03T22:30:47.602Z,7.50
2019-05-03T22:33:18.052Z,7.50
2019-05-03T22:35:48.408Z,7.60
2019-05-03T22:38:18.760Z,7.60
2019-05-03T22:40:49.091Z,7.60
2019-05-03T22:43:19.397Z,7.50
2019-05-03T22:45:49.753Z,7.50
2019-05-03T22:48:20.089Z,7.50
2019-05-03T22:50:50.522Z,7.40
2019-05-03T22:53:21.011Z,7.40
2019-05-03T22:55:54.230Z,7.40
2019-05-03T22:58:24.869Z,7.40
2019-05-03T23:00:55.402Z,7.40
2019-05-03T23:03:26.897Z,7.40
2019-05-03T23:05:57.201Z,7.30
2019-05-03T23:08:27.518Z,7.40
2019-05-03T23:10:57.824Z,7.30
2019-05-03T23:13:28.144Z,7.40
2019-05-03T23:15:58.458Z,7.40
2019-05-03T23:18:28.814Z,7.40
2019-05-03T23:21:20.849Z,7.30
2019-05-03T23:23:54.666Z,7.30
2019-05-03T23:26:25.425Z,7.30
2019-05-03T23:28:55.911Z,7.20
2019-05-03T23:31:26.427Z,7.20
2019-05-03T23:33:56.817Z,7.10
2019-05-03T23:36:33.613Z,7.10
2019-05-03T23:38:59.098Z,7.10
2019-05-03T23:41:29.566Z,7.20
2019-05-03T23:43:59.877Z,7.10
2019-05-03T23:46:39.244Z,7.10
2019-05-03T23:49:09.623Z,7.10
2019-05-03T23:51:51.226Z,7.00
2019-05-03T23:54:21.537Z,7.10
2019-05-03T23:56:51.942Z,7.10
2019-05-03T23:59:22.243Z,7.10
